CEB995 RPLL-RPMR
Flight info
| Callsign | CEB995 |
|---|---|
| Flight time | 1h 27m |
| Altitude | 35000 |
| Route | VERDE2P VERDE A461 SAJ W3 IOO B472 COT W19 MELBY MELBY3R |
| Aircraft | A321/M-SDE3FGHIRWY/LB1 |
Departure
| Time | 2026-04-17 11:35 |
|---|---|
| Airport | Ninoy Aquino International Airport (RPLL) |
Arrival
| Time | 2026-04-17 13:02 |
|---|---|
| Airport | General Santos International Airport (RPMR) |
| Time | Latitude | Longitude | Altitude | Speed | Heading |
|---|---|---|---|---|---|
| 2026-04-17 11:21 | 14.52192 | 121.00999 | 82 ft | 0 kts | 46° |
| 2026-04-17 11:23 | 14.52185 | 121.00991 | 82 ft | 2 kts | 46° |
| 2026-04-17 11:23 | 14.52174 | 121.00980 | 82 ft | 2 kts | 46° |
| 2026-04-17 11:24 | 14.52164 | 121.00968 | 82 ft | 2 kts | 46° |
| 2026-04-17 11:24 | 14.52153 | 121.00957 | 82 ft | 2 kts | 46° |
| 2026-04-17 11:24 | 14.52143 | 121.00946 | 82 ft | 2 kts | 46° |
| 2026-04-17 11:24 | 14.52132 | 121.00935 | 82 ft | 2 kts | 52° |
| 2026-04-17 11:25 | 14.52126 | 121.00921 | 82 ft | 2 kts | 80° |
| 2026-04-17 11:25 | 14.52126 | 121.00905 | 82 ft | 2 kts | 103° |
| 2026-04-17 11:25 | 14.52131 | 121.00890 | 82 ft | 2 kts | 125° |
| 2026-04-17 11:25 | 14.52136 | 121.00885 | 82 ft | 1 kts | 138° |
| 2026-04-17 11:26 | 14.52139 | 121.00882 | 82 ft | 0 kts | 135° |
| 2026-04-17 11:27 | 14.52138 | 121.00884 | 82 ft | 1 kts | 135° |
| 2026-04-17 11:27 | 14.52115 | 121.00907 | 82 ft | 8 kts | 135° |
| 2026-04-17 11:28 | 14.52027 | 121.00998 | 82 ft | 20 kts | 134° |
| 2026-04-17 11:28 | 14.51798 | 121.01235 | 82 ft | 15 kts | 134° |
| 2026-04-17 11:28 | 14.51722 | 121.01314 | 82 ft | 15 kts | 135° |
| 2026-04-17 11:28 | 14.51644 | 121.01393 | 82 ft | 15 kts | 135° |
| 2026-04-17 11:29 | 14.51567 | 121.01472 | 82 ft | 15 kts | 135° |
| 2026-04-17 11:29 | 14.51494 | 121.01548 | 82 ft | 14 kts | 134° |
| 2026-04-17 11:29 | 14.51421 | 121.01625 | 82 ft | 15 kts | 134° |
| 2026-04-17 11:29 | 14.51345 | 121.01704 | 82 ft | 15 kts | 135° |
| 2026-04-17 11:30 | 14.51270 | 121.01781 | 82 ft | 15 kts | 135° |
| 2026-04-17 11:30 | 14.51197 | 121.01857 | 82 ft | 14 kts | 135° |
| 2026-04-17 11:30 | 14.51124 | 121.01932 | 82 ft | 14 kts | 135° |
| 2026-04-17 11:30 | 14.51063 | 121.01997 | 82 ft | 7 kts | 117° |
| 2026-04-17 11:31 | 14.51077 | 121.02052 | 82 ft | 9 kts | 62° |
| 2026-04-17 11:31 | 14.51113 | 121.02119 | 82 ft | 11 kts | 60° |
| 2026-04-17 11:31 | 14.51158 | 121.02198 | 82 ft | 13 kts | 60° |
| 2026-04-17 11:31 | 14.51209 | 121.02291 | 82 ft | 15 kts | 60° |
| 2026-04-17 11:32 | 14.51267 | 121.02395 | 82 ft | 17 kts | 60° |
| 2026-04-17 11:32 | 14.51330 | 121.02509 | 82 ft | 18 kts | 60° |
| 2026-04-17 11:32 | 14.51393 | 121.02621 | 82 ft | 17 kts | 60° |
| 2026-04-17 11:32 | 14.51452 | 121.02728 | 82 ft | 13 kts | 61° |
| 2026-04-17 11:33 | 14.51488 | 121.02795 | 82 ft | 7 kts | 60° |
| 2026-04-17 11:33 | 14.51497 | 121.02827 | 82 ft | 4 kts | 108° |
| 2026-04-17 11:33 | 14.51469 | 121.02851 | 82 ft | 6 kts | 144° |
| 2026-04-17 11:33 | 14.51430 | 121.02874 | 82 ft | 6 kts | 151° |
| 2026-04-17 11:34 | 14.51389 | 121.02883 | 82 ft | 5 kts | 199° |
| 2026-04-17 11:34 | 14.51361 | 121.02850 | 82 ft | 6 kts | 239° |
| 2026-04-17 11:34 | 14.51313 | 121.02764 | 82 ft | 37 kts | 240° |
| 2026-04-17 11:34 | 14.51055 | 121.02300 | 82 ft | 108 kts | 240° |
| 2026-04-17 11:35 | 14.50572 | 121.01434 | 94 ft | 164 kts | 240° |
| 2026-04-17 11:35 | 14.49989 | 121.00373 | 584 ft | 171 kts | 240° |
| 2026-04-17 11:35 | 14.49394 | 120.99316 | 1234 ft | 173 kts | 240° |
| 2026-04-17 11:35 | 14.48794 | 120.98254 | 1882 ft | 170 kts | 239° |
| 2026-04-17 11:36 | 14.48201 | 120.97198 | 2245 ft | 169 kts | 240° |
| 2026-04-17 11:36 | 14.47601 | 120.96130 | 2537 ft | 173 kts | 241° |
| 2026-04-17 11:36 | 14.46990 | 120.95036 | 2784 ft | 181 kts | 241° |
| 2026-04-17 11:36 | 14.46356 | 120.93892 | 3116 ft | 184 kts | 240° |
| 2026-04-17 11:37 | 14.45707 | 120.92722 | 3410 ft | 192 kts | 239° |
| 2026-04-17 11:37 | 14.45025 | 120.91500 | 3653 ft | 204 kts | 240° |
| 2026-04-17 11:37 | 14.44286 | 120.90179 | 3918 ft | 217 kts | 240° |
| 2026-04-17 11:37 | 14.43389 | 120.88880 | 4160 ft | 229 kts | 220° |
| 2026-04-17 11:38 | 14.41908 | 120.88191 | 4340 ft | 244 kts | 184° |
| 2026-04-17 11:38 | 14.40184 | 120.88366 | 4619 ft | 256 kts | 167° |
| 2026-04-17 11:38 | 14.38363 | 120.88719 | 4927 ft | 272 kts | 168° |
| 2026-04-17 11:38 | 14.36459 | 120.89056 | 5469 ft | 277 kts | 169° |
| 2026-04-17 11:39 | 14.34550 | 120.89382 | 6135 ft | 279 kts | 169° |
| 2026-04-17 11:39 | 14.33264 | 120.89598 | 6565 ft | 280 kts | 169° |
| 2026-04-17 11:39 | 14.31318 | 120.89921 | 7148 ft | 284 kts | 169° |
| 2026-04-17 11:39 | 14.28680 | 120.90357 | 7900 ft | 289 kts | 169° |
| 2026-04-17 11:40 | 14.26695 | 120.90685 | 8456 ft | 292 kts | 169° |
| 2026-04-17 11:40 | 14.24668 | 120.91019 | 9014 ft | 295 kts | 168° |
| 2026-04-17 11:40 | 14.22623 | 120.91356 | 9558 ft | 298 kts | 168° |
| 2026-04-17 11:40 | 14.20555 | 120.91698 | 10098 ft | 301 kts | 168° |
| 2026-04-17 11:41 | 14.18486 | 120.92042 | 10478 ft | 309 kts | 168° |
| 2026-04-17 11:41 | 14.17025 | 120.92285 | 10639 ft | 318 kts | 168° |
| 2026-04-17 11:41 | 14.14762 | 120.92660 | 10867 ft | 331 kts | 168° |
| 2026-04-17 11:41 | 14.12442 | 120.93042 | 11099 ft | 344 kts | 169° |
| 2026-04-17 11:42 | 14.09167 | 120.93582 | 11389 ft | 360 kts | 169° |
| 2026-04-17 11:42 | 14.06663 | 120.93994 | 11636 ft | 370 kts | 169° |
| 2026-04-17 11:42 | 14.04107 | 120.94415 | 12038 ft | 373 kts | 169° |
| 2026-04-17 11:42 | 14.01528 | 120.94836 | 12500 ft | 375 kts | 169° |
| 2026-04-17 11:43 | 13.98918 | 120.95262 | 12922 ft | 379 kts | 169° |
| 2026-04-17 11:43 | 13.96285 | 120.95692 | 13342 ft | 381 kts | 169° |
| 2026-04-17 11:43 | 13.93643 | 120.96123 | 13766 ft | 383 kts | 169° |
| 2026-04-17 11:43 | 13.90977 | 120.96558 | 14164 ft | 386 kts | 169° |
| 2026-04-17 11:44 | 13.88299 | 120.96995 | 14535 ft | 389 kts | 169° |
| 2026-04-17 11:44 | 13.85603 | 120.97435 | 14920 ft | 392 kts | 169° |
| 2026-04-17 11:44 | 13.82880 | 120.97881 | 15290 ft | 395 kts | 169° |
| 2026-04-17 11:44 | 13.80151 | 120.98326 | 15664 ft | 397 kts | 169° |
| 2026-04-17 11:45 | 13.77391 | 120.98778 | 16023 ft | 400 kts | 169° |
| 2026-04-17 11:45 | 13.74633 | 120.99228 | 16380 ft | 402 kts | 169° |
| 2026-04-17 11:45 | 13.71846 | 120.99683 | 16733 ft | 405 kts | 169° |
| 2026-04-17 11:45 | 13.69048 | 121.00140 | 17056 ft | 407 kts | 169° |
| 2026-04-17 11:46 | 13.66218 | 121.00602 | 17394 ft | 410 kts | 169° |
| 2026-04-17 11:46 | 13.64335 | 121.00909 | 17607 ft | 412 kts | 169° |
| 2026-04-17 11:47 | 13.49725 | 121.03115 | 19321 ft | 419 kts | 174° |
| 2026-04-17 11:47 | 13.46802 | 121.03240 | 19652 ft | 421 kts | 178° |
| 2026-04-17 11:48 | 13.43864 | 121.03275 | 19986 ft | 422 kts | 178° |
| 2026-04-17 11:48 | 13.40900 | 121.03298 | 20306 ft | 423 kts | 178° |
| 2026-04-17 11:48 | 13.37940 | 121.03322 | 20620 ft | 424 kts | 178° |
| 2026-04-17 11:48 | 13.34963 | 121.03348 | 20930 ft | 426 kts | 178° |
| 2026-04-17 11:49 | 13.31977 | 121.03376 | 21240 ft | 427 kts | 178° |
| 2026-04-17 11:49 | 13.29008 | 121.03405 | 21538 ft | 428 kts | 178° |
| 2026-04-17 11:49 | 13.26012 | 121.03436 | 21835 ft | 429 kts | 178° |
| 2026-04-17 11:49 | 13.23005 | 121.03465 | 22123 ft | 430 kts | 178° |
| 2026-04-17 11:50 | 13.19987 | 121.03495 | 22399 ft | 431 kts | 178° |
| 2026-04-17 11:50 | 13.16975 | 121.03524 | 22670 ft | 433 kts | 178° |
| 2026-04-17 11:50 | 13.13970 | 121.03554 | 22934 ft | 434 kts | 178° |
| 2026-04-17 11:50 | 13.10937 | 121.03584 | 23195 ft | 436 kts | 178° |
| 2026-04-17 11:51 | 13.07863 | 121.03614 | 23455 ft | 437 kts | 178° |
| 2026-04-17 11:51 | 13.04797 | 121.03644 | 23717 ft | 439 kts | 178° |
| 2026-04-17 11:51 | 13.01739 | 121.03674 | 23981 ft | 440 kts | 178° |
| 2026-04-17 11:51 | 12.98647 | 121.03704 | 24238 ft | 441 kts | 178° |
| 2026-04-17 11:52 | 12.95551 | 121.03735 | 24490 ft | 443 kts | 178° |
| 2026-04-17 11:52 | 12.92445 | 121.03767 | 24745 ft | 444 kts | 179° |
| 2026-04-17 11:52 | 12.89285 | 121.03798 | 24995 ft | 445 kts | 179° |
| 2026-04-17 11:52 | 12.86163 | 121.03829 | 25227 ft | 447 kts | 179° |
| 2026-04-17 11:53 | 12.83040 | 121.03861 | 25442 ft | 449 kts | 179° |
| 2026-04-17 11:53 | 12.79878 | 121.03892 | 25635 ft | 451 kts | 179° |
| 2026-04-17 11:53 | 12.76740 | 121.03921 | 25834 ft | 453 kts | 179° |
| 2026-04-17 11:53 | 12.73533 | 121.03954 | 26050 ft | 455 kts | 179° |
| 2026-04-17 11:54 | 12.70341 | 121.03984 | 26267 ft | 456 kts | 179° |
| 2026-04-17 11:54 | 12.67184 | 121.04015 | 26475 ft | 457 kts | 179° |
| 2026-04-17 11:54 | 12.63974 | 121.04047 | 26685 ft | 458 kts | 179° |
| 2026-04-17 11:54 | 12.60740 | 121.04079 | 26894 ft | 460 kts | 179° |
| 2026-04-17 11:55 | 12.57492 | 121.04111 | 27098 ft | 461 kts | 179° |
| 2026-04-17 11:55 | 12.54303 | 121.04143 | 27293 ft | 462 kts | 179° |
| 2026-04-17 11:55 | 12.51054 | 121.04176 | 27483 ft | 463 kts | 179° |
| 2026-04-17 11:55 | 12.47798 | 121.04208 | 27658 ft | 465 kts | 179° |
| 2026-04-17 11:56 | 12.44549 | 121.04240 | 27832 ft | 466 kts | 179° |
| 2026-04-17 11:56 | 12.41302 | 121.04276 | 28040 ft | 467 kts | 178° |
| 2026-04-17 11:56 | 12.38057 | 121.04703 | 28245 ft | 466 kts | 165° |
| 2026-04-17 11:56 | 12.35018 | 121.05890 | 28484 ft | 464 kts | 152° |
| 2026-04-17 11:57 | 12.32361 | 121.07724 | 28728 ft | 462 kts | 139° |
| 2026-04-17 11:57 | 12.29983 | 121.09948 | 29013 ft | 460 kts | 136° |
| 2026-04-17 11:57 | 12.27679 | 121.12178 | 29248 ft | 460 kts | 135° |
| 2026-04-17 11:57 | 12.25355 | 121.14436 | 29472 ft | 461 kts | 135° |
| 2026-04-17 11:58 | 12.22988 | 121.16725 | 29713 ft | 460 kts | 136° |
| 2026-04-17 11:58 | 12.20660 | 121.18970 | 29950 ft | 461 kts | 136° |
| 2026-04-17 11:58 | 12.18325 | 121.21212 | 30179 ft | 461 kts | 136° |
| 2026-04-17 11:58 | 12.15975 | 121.23464 | 30403 ft | 461 kts | 136° |
| 2026-04-17 11:59 | 12.13645 | 121.25693 | 30624 ft | 461 kts | 136° |
| 2026-04-17 11:59 | 12.11283 | 121.27951 | 30843 ft | 461 kts | 136° |
| 2026-04-17 11:59 | 12.08957 | 121.30173 | 31074 ft | 461 kts | 136° |
| 2026-04-17 11:59 | 12.06582 | 121.32442 | 31314 ft | 461 kts | 136° |
| 2026-04-17 12:00 | 12.04260 | 121.34660 | 31554 ft | 461 kts | 136° |
| 2026-04-17 12:00 | 12.01901 | 121.36910 | 31801 ft | 461 kts | 136° |
| 2026-04-17 12:00 | 11.99549 | 121.39155 | 32050 ft | 460 kts | 136° |
| 2026-04-17 12:00 | 11.97210 | 121.41386 | 32293 ft | 460 kts | 136° |
| 2026-04-17 12:01 | 11.94869 | 121.43619 | 32514 ft | 460 kts | 136° |
| 2026-04-17 12:01 | 11.92513 | 121.45867 | 32737 ft | 460 kts | 136° |
| 2026-04-17 12:01 | 11.90162 | 121.48109 | 32972 ft | 461 kts | 136° |
| 2026-04-17 12:01 | 11.87839 | 121.50324 | 33210 ft | 461 kts | 136° |
| 2026-04-17 12:02 | 11.85453 | 121.52599 | 33460 ft | 461 kts | 136° |
| 2026-04-17 12:02 | 11.83089 | 121.54851 | 33706 ft | 461 kts | 136° |
| 2026-04-17 12:02 | 11.80760 | 121.57072 | 33947 ft | 460 kts | 136° |
| 2026-04-17 12:02 | 11.78391 | 121.59328 | 34187 ft | 460 kts | 136° |
| 2026-04-17 12:03 | 11.76045 | 121.61562 | 34407 ft | 460 kts | 136° |
| 2026-04-17 12:03 | 11.73723 | 121.63774 | 34607 ft | 460 kts | 136° |
| 2026-04-17 12:03 | 11.71358 | 121.66026 | 34798 ft | 461 kts | 136° |
| 2026-04-17 12:03 | 11.68992 | 121.68280 | 34883 ft | 462 kts | 136° |
| 2026-04-17 12:04 | 11.64316 | 121.72724 | 34890 ft | 461 kts | 136° |
| 2026-04-17 12:04 | 11.59579 | 121.77221 | 34893 ft | 461 kts | 136° |
| 2026-04-17 12:05 | 11.54896 | 121.81671 | 34891 ft | 461 kts | 136° |
| 2026-04-17 12:05 | 11.50170 | 121.86161 | 34890 ft | 461 kts | 136° |
| 2026-04-17 12:06 | 11.45473 | 121.90614 | 34892 ft | 460 kts | 136° |
| 2026-04-17 12:06 | 11.40790 | 121.95050 | 34892 ft | 460 kts | 136° |
| 2026-04-17 12:07 | 11.36099 | 121.99496 | 34892 ft | 460 kts | 136° |
| 2026-04-17 12:07 | 11.31362 | 122.03986 | 34898 ft | 464 kts | 136° |
| 2026-04-17 12:08 | 11.26608 | 122.08491 | 34912 ft | 471 kts | 136° |
| 2026-04-17 12:08 | 11.21758 | 122.13086 | 34928 ft | 476 kts | 136° |
| 2026-04-17 12:09 | 11.16887 | 122.17700 | 34948 ft | 477 kts | 136° |
| 2026-04-17 12:09 | 11.12001 | 122.22329 | 34971 ft | 477 kts | 136° |
| 2026-04-17 12:10 | 11.07109 | 122.26958 | 34992 ft | 477 kts | 136° |
| 2026-04-17 12:10 | 11.02216 | 122.31576 | 34987 ft | 477 kts | 136° |
| 2026-04-17 12:11 | 10.97311 | 122.36204 | 34971 ft | 477 kts | 136° |
| 2026-04-17 12:12 | 10.89959 | 122.43131 | 34934 ft | 477 kts | 137° |
| 2026-04-17 12:12 | 10.84741 | 122.47403 | 34917 ft | 477 kts | 143° |
| 2026-04-17 12:13 | 10.79153 | 122.51051 | 34902 ft | 477 kts | 149° |
| 2026-04-17 12:13 | 10.73170 | 122.54121 | 34901 ft | 477 kts | 154° |
| 2026-04-17 12:14 | 10.67122 | 122.56976 | 34898 ft | 477 kts | 154° |
| 2026-04-17 12:14 | 10.61065 | 122.59834 | 34897 ft | 477 kts | 154° |
| 2026-04-17 12:15 | 10.55033 | 122.62687 | 34894 ft | 476 kts | 154° |
| 2026-04-17 12:15 | 10.48988 | 122.65545 | 34892 ft | 476 kts | 154° |
| 2026-04-17 12:16 | 10.42948 | 122.68403 | 34899 ft | 476 kts | 154° |
| 2026-04-17 12:16 | 10.36954 | 122.71236 | 34904 ft | 476 kts | 154° |
| 2026-04-17 12:17 | 10.30908 | 122.74084 | 34906 ft | 476 kts | 154° |
| 2026-04-17 12:17 | 10.24876 | 122.76930 | 34904 ft | 476 kts | 154° |
| 2026-04-17 12:18 | 10.18832 | 122.79781 | 34906 ft | 475 kts | 154° |
| 2026-04-17 12:18 | 10.12810 | 122.82616 | 34916 ft | 475 kts | 154° |
| 2026-04-17 12:19 | 10.06815 | 122.85435 | 34928 ft | 474 kts | 154° |
| 2026-04-17 12:19 | 10.00798 | 122.88269 | 34945 ft | 475 kts | 154° |
| 2026-04-17 12:20 | 9.94758 | 122.91112 | 34962 ft | 474 kts | 154° |
| 2026-04-17 12:20 | 9.88754 | 122.93940 | 34977 ft | 474 kts | 154° |
| 2026-04-17 12:21 | 9.82750 | 122.96768 | 34985 ft | 473 kts | 154° |
| 2026-04-17 12:21 | 9.76749 | 122.99590 | 34994 ft | 474 kts | 155° |
| 2026-04-17 12:22 | 9.70724 | 123.02414 | 34995 ft | 473 kts | 154° |
| 2026-04-17 12:22 | 9.64721 | 123.05231 | 34977 ft | 472 kts | 154° |
| 2026-04-17 12:23 | 9.58741 | 123.08040 | 34963 ft | 472 kts | 154° |
| 2026-04-17 12:23 | 9.52745 | 123.10856 | 34948 ft | 472 kts | 154° |
| 2026-04-17 12:24 | 9.46728 | 123.13680 | 34935 ft | 472 kts | 154° |
| 2026-04-17 12:24 | 9.40760 | 123.16480 | 34928 ft | 471 kts | 154° |
| 2026-04-17 12:25 | 9.34749 | 123.19301 | 34919 ft | 471 kts | 154° |
| 2026-04-17 12:25 | 9.28745 | 123.22116 | 34919 ft | 471 kts | 154° |
| 2026-04-17 12:26 | 9.22728 | 123.24938 | 34915 ft | 471 kts | 154° |
| 2026-04-17 12:26 | 9.16738 | 123.27748 | 34908 ft | 470 kts | 154° |
| 2026-04-17 12:27 | 9.10755 | 123.30549 | 34907 ft | 469 kts | 154° |
| 2026-04-17 12:27 | 9.04823 | 123.33318 | 34899 ft | 469 kts | 154° |
| 2026-04-17 12:28 | 8.98896 | 123.36090 | 34894 ft | 469 kts | 154° |
| 2026-04-17 12:28 | 8.92930 | 123.38882 | 34892 ft | 470 kts | 154° |
| 2026-04-17 12:29 | 8.86972 | 123.41667 | 34894 ft | 469 kts | 154° |
| 2026-04-17 12:29 | 8.81010 | 123.44456 | 34897 ft | 469 kts | 154° |
| 2026-04-17 12:30 | 8.75034 | 123.47248 | 34899 ft | 469 kts | 154° |
| 2026-04-17 12:30 | 8.69123 | 123.50010 | 34903 ft | 469 kts | 154° |
| 2026-04-17 12:31 | 8.63174 | 123.52789 | 34907 ft | 469 kts | 154° |
| 2026-04-17 12:31 | 8.57205 | 123.55577 | 34911 ft | 469 kts | 154° |
| 2026-04-17 12:32 | 8.51286 | 123.58340 | 34915 ft | 468 kts | 154° |
| 2026-04-17 12:32 | 8.45310 | 123.61129 | 34922 ft | 469 kts | 154° |
| 2026-04-17 12:33 | 8.39384 | 123.63892 | 34932 ft | 468 kts | 154° |
| 2026-04-17 12:33 | 8.33417 | 123.66675 | 34942 ft | 468 kts | 154° |
| 2026-04-17 12:34 | 8.27474 | 123.69446 | 34955 ft | 468 kts | 154° |
| 2026-04-17 12:34 | 8.21527 | 123.72217 | 34963 ft | 468 kts | 154° |
| 2026-04-17 12:35 | 8.15590 | 123.74983 | 34957 ft | 468 kts | 154° |
| 2026-04-17 12:35 | 8.09658 | 123.77745 | 34954 ft | 468 kts | 154° |
| 2026-04-17 12:37 | 7.85859 | 123.88820 | 34969 ft | 467 kts | 154° |
| 2026-04-17 12:38 | 7.79900 | 123.91591 | 34974 ft | 467 kts | 154° |
| 2026-04-17 12:38 | 7.73995 | 123.94336 | 34984 ft | 467 kts | 154° |
| 2026-04-17 12:39 | 7.68115 | 123.97066 | 34926 ft | 453 kts | 153° |
| 2026-04-17 12:39 | 7.63806 | 123.99067 | 34495 ft | 449 kts | 153° |
| 2026-04-17 12:39 | 7.60973 | 124.00384 | 34087 ft | 448 kts | 153° |
| 2026-04-17 12:40 | 7.58124 | 124.01709 | 33507 ft | 446 kts | 153° |
| 2026-04-17 12:40 | 7.55282 | 124.03029 | 32765 ft | 448 kts | 153° |
| 2026-04-17 12:40 | 7.52456 | 124.04343 | 31975 ft | 451 kts | 153° |
| 2026-04-17 12:40 | 7.49592 | 124.05676 | 31178 ft | 454 kts | 154° |
| 2026-04-17 12:41 | 7.46711 | 124.07016 | 30386 ft | 456 kts | 154° |
| 2026-04-17 12:41 | 7.42003 | 124.09202 | 29116 ft | 459 kts | 154° |
| 2026-04-17 12:41 | 7.39070 | 124.10561 | 28319 ft | 461 kts | 154° |
| 2026-04-17 12:42 | 7.36153 | 124.11913 | 27560 ft | 462 kts | 154° |
| 2026-04-17 12:42 | 7.33218 | 124.13274 | 26975 ft | 459 kts | 154° |
| 2026-04-17 12:42 | 7.30342 | 124.14608 | 26434 ft | 455 kts | 154° |
| 2026-04-17 12:42 | 7.27464 | 124.15943 | 25885 ft | 451 kts | 154° |
| 2026-04-17 12:43 | 7.24607 | 124.17269 | 25338 ft | 447 kts | 154° |
| 2026-04-17 12:43 | 7.21775 | 124.18583 | 24795 ft | 444 kts | 154° |
| 2026-04-17 12:43 | 7.20169 | 124.19338 | 24484 ft | 442 kts | 153° |
| 2026-04-17 12:43 | 7.17463 | 124.20798 | 23936 ft | 439 kts | 148° |
| 2026-04-17 12:44 | 7.14890 | 124.22469 | 23389 ft | 436 kts | 143° |
| 2026-04-17 12:44 | 7.12467 | 124.24322 | 22853 ft | 433 kts | 140° |
| 2026-04-17 12:44 | 7.10123 | 124.26218 | 22308 ft | 431 kts | 140° |
| 2026-04-17 12:44 | 7.07805 | 124.28110 | 21802 ft | 429 kts | 140° |
| 2026-04-17 12:45 | 7.05475 | 124.30009 | 21296 ft | 426 kts | 140° |
| 2026-04-17 12:45 | 7.03174 | 124.31883 | 20806 ft | 423 kts | 140° |
| 2026-04-17 12:45 | 7.00881 | 124.33747 | 20313 ft | 421 kts | 140° |
| 2026-04-17 12:45 | 6.98625 | 124.35578 | 19827 ft | 418 kts | 140° |
| 2026-04-17 12:46 | 6.96348 | 124.37424 | 19321 ft | 416 kts | 140° |
| 2026-04-17 12:46 | 6.94081 | 124.39261 | 18827 ft | 414 kts | 140° |
| 2026-04-17 12:46 | 6.91846 | 124.41071 | 18340 ft | 411 kts | 140° |
| 2026-04-17 12:46 | 6.89605 | 124.42887 | 17857 ft | 408 kts | 140° |
| 2026-04-17 12:47 | 6.87390 | 124.44681 | 17385 ft | 405 kts | 140° |
| 2026-04-17 12:47 | 6.85210 | 124.46448 | 16906 ft | 403 kts | 140° |
| 2026-04-17 12:47 | 6.83017 | 124.48225 | 16433 ft | 400 kts | 140° |
| 2026-04-17 12:47 | 6.80856 | 124.49975 | 16009 ft | 395 kts | 141° |
| 2026-04-17 12:48 | 6.78718 | 124.51707 | 15581 ft | 391 kts | 141° |
| 2026-04-17 12:48 | 6.76606 | 124.53416 | 15117 ft | 388 kts | 141° |
| 2026-04-17 12:48 | 6.74520 | 124.55106 | 14667 ft | 384 kts | 141° |
| 2026-04-17 12:48 | 6.72443 | 124.56788 | 14218 ft | 381 kts | 141° |
| 2026-04-17 12:49 | 6.70355 | 124.58478 | 13769 ft | 377 kts | 142° |
| 2026-04-17 12:49 | 6.68340 | 124.60107 | 13330 ft | 374 kts | 142° |
| 2026-04-17 12:49 | 6.66300 | 124.61747 | 12812 ft | 373 kts | 143° |
| 2026-04-17 12:49 | 6.64227 | 124.63333 | 12333 ft | 370 kts | 143° |
| 2026-04-17 12:50 | 6.62178 | 124.64875 | 11854 ft | 367 kts | 143° |
| 2026-04-17 12:50 | 6.60153 | 124.66398 | 11543 ft | 352 kts | 143° |
| 2026-04-17 12:50 | 6.58228 | 124.67851 | 11285 ft | 337 kts | 143° |
| 2026-04-17 12:50 | 6.56397 | 124.69237 | 11039 ft | 323 kts | 143° |
| 2026-04-17 12:51 | 6.52938 | 124.71859 | 10604 ft | 298 kts | 143° |
| 2026-04-17 12:51 | 6.51290 | 124.73110 | 10410 ft | 287 kts | 143° |
| 2026-04-17 12:51 | 6.49716 | 124.74306 | 10200 ft | 278 kts | 143° |
| 2026-04-17 12:52 | 6.48180 | 124.75472 | 9920 ft | 274 kts | 142° |
| 2026-04-17 12:52 | 6.46663 | 124.76621 | 9619 ft | 272 kts | 142° |
| 2026-04-17 12:52 | 6.45161 | 124.77761 | 9306 ft | 270 kts | 142° |
| 2026-04-17 12:52 | 6.43644 | 124.78912 | 8996 ft | 268 kts | 142° |
| 2026-04-17 12:53 | 6.42158 | 124.80039 | 8686 ft | 267 kts | 142° |
| 2026-04-17 12:53 | 6.40673 | 124.81165 | 8361 ft | 266 kts | 142° |
| 2026-04-17 12:53 | 6.39222 | 124.82334 | 8040 ft | 264 kts | 136° |
| 2026-04-17 12:53 | 6.37960 | 124.83683 | 7702 ft | 264 kts | 127° |
| 2026-04-17 12:54 | 6.36874 | 124.85167 | 7370 ft | 263 kts | 124° |
| 2026-04-17 12:54 | 6.35831 | 124.86671 | 7047 ft | 262 kts | 123° |
| 2026-04-17 12:54 | 6.34798 | 124.88170 | 6732 ft | 260 kts | 123° |
| 2026-04-17 12:54 | 6.33768 | 124.89656 | 6421 ft | 257 kts | 123° |
| 2026-04-17 12:55 | 6.32747 | 124.91122 | 6106 ft | 252 kts | 123° |
| 2026-04-17 12:55 | 6.31749 | 124.92551 | 5807 ft | 247 kts | 124° |
| 2026-04-17 12:55 | 6.30771 | 124.93951 | 5510 ft | 244 kts | 124° |
| 2026-04-17 12:55 | 6.29805 | 124.95332 | 5210 ft | 240 kts | 124° |
| 2026-04-17 12:56 | 6.28845 | 124.96702 | 4911 ft | 237 kts | 124° |
| 2026-04-17 12:56 | 6.27953 | 124.98074 | 4613 ft | 232 kts | 117° |
| 2026-04-17 12:56 | 6.27274 | 124.99544 | 4320 ft | 229 kts | 109° |
| 2026-04-17 12:56 | 6.26787 | 125.01045 | 4196 ft | 218 kts | 106° |
| 2026-04-17 12:57 | 6.26364 | 125.02450 | 4156 ft | 201 kts | 106° |
| 2026-04-17 12:57 | 6.25963 | 125.03791 | 4086 ft | 202 kts | 106° |
| 2026-04-17 12:57 | 6.25558 | 125.05138 | 4007 ft | 203 kts | 106° |
| 2026-04-17 12:57 | 6.25095 | 125.06504 | 3857 ft | 203 kts | 116° |
| 2026-04-17 12:58 | 6.24120 | 125.07415 | 3637 ft | 192 kts | 158° |
| 2026-04-17 12:58 | 6.22830 | 125.07639 | 3506 ft | 178 kts | 174° |
| 2026-04-17 12:58 | 6.21642 | 125.07750 | 3367 ft | 164 kts | 174° |
| 2026-04-17 12:58 | 6.20506 | 125.07866 | 3241 ft | 161 kts | 173° |
| 2026-04-17 12:59 | 6.19427 | 125.07985 | 2928 ft | 153 kts | 173° |
| 2026-04-17 12:59 | 6.18367 | 125.08108 | 2728 ft | 152 kts | 173° |
| 2026-04-17 12:59 | 6.17301 | 125.08234 | 2524 ft | 153 kts | 173° |
| 2026-04-17 12:59 | 6.16236 | 125.08363 | 2323 ft | 152 kts | 173° |
| 2026-04-17 13:00 | 6.15174 | 125.08492 | 2120 ft | 152 kts | 173° |
| 2026-04-17 13:00 | 6.14118 | 125.08622 | 1919 ft | 151 kts | 174° |
| 2026-04-17 13:00 | 6.13074 | 125.08749 | 1712 ft | 151 kts | 174° |
| 2026-04-17 13:00 | 6.12021 | 125.08877 | 1511 ft | 150 kts | 174° |
| 2026-04-17 13:01 | 6.10971 | 125.09003 | 1310 ft | 150 kts | 174° |
| 2026-04-17 13:01 | 6.09925 | 125.09130 | 1113 ft | 149 kts | 174° |
| 2026-04-17 13:01 | 6.08888 | 125.09250 | 903 ft | 149 kts | 175° |
| 2026-04-17 13:01 | 6.07855 | 125.09365 | 685 ft | 147 kts | 173° |
| 2026-04-17 13:02 | 6.06844 | 125.09489 | 535 ft | 143 kts | 172° |
| 2026-04-17 13:02 | 6.05968 | 125.09598 | 532 ft | 102 kts | 173° |
| 2026-04-17 13:02 | 6.05580 | 125.09644 | 532 ft | 20 kts | 173° |
| 2026-04-17 13:02 | 6.05510 | 125.09652 | 532 ft | 6 kts | 173° |
| 2026-04-17 13:03 | 6.05462 | 125.09658 | 532 ft | 7 kts | 173° |
| 2026-04-17 13:03 | 6.05410 | 125.09672 | 532 ft | 8 kts | 139° |
| 2026-04-17 13:03 | 6.05401 | 125.09730 | 532 ft | 9 kts | 84° |
| 2026-04-17 13:03 | 6.05409 | 125.09797 | 531 ft | 10 kts | 83° |
| 2026-04-17 13:04 | 6.05418 | 125.09871 | 531 ft | 10 kts | 83° |
| 2026-04-17 13:04 | 6.05422 | 125.09894 | 531 ft | 8 kts | 66° |
| 2026-04-17 13:05 | 6.05643 | 125.09887 | 531 ft | 9 kts | 353° |
| 2026-04-17 13:05 | 6.05691 | 125.09881 | 531 ft | 6 kts | 353° |
| 2026-04-17 13:05 | 6.05743 | 125.09875 | 531 ft | 7 kts | 353° |
| 2026-04-17 13:05 | 6.05764 | 125.09882 | 531 ft | 3 kts | 50° |
| 2026-04-17 13:06 | 6.05771 | 125.09910 | 531 ft | 4 kts | 83° |
| 2026-04-17 13:06 | 6.05774 | 125.09941 | 531 ft | 1 kts | 83° |
| 2026-04-17 13:06 | 6.05776 | 125.09956 | 531 ft | 1 kts | 83° |
| 2026-04-17 13:06 | 6.05776 | 125.09957 | 531 ft | 0 kts | 83° |